createdAt,value
2022-08-18T00:01:16.843Z,5.22
2022-08-18T00:03:56.254Z,5.32
2022-08-18T00:06:29.369Z,5.80
2022-08-18T00:09:00.580Z,5.47
2022-08-18T00:11:40.536Z,5.82
2022-08-18T00:14:22.221Z,5.55
2022-08-18T00:16:54.176Z,5.13
2022-08-18T00:19:46.515Z,5.00
2022-08-18T00:22:16.019Z,5.88
2022-08-18T00:24:47.904Z,5.38
2022-08-18T00:27:23.290Z,5.50
2022-08-18T00:29:53.215Z,5.65
2022-08-18T00:32:24.692Z,5.82
2022-08-18T00:34:54.500Z,6.10
2022-08-18T00:37:24.419Z,6.07
2022-08-18T00:39:54.110Z,6.38
2022-08-18T00:42:30.837Z,5.68
2022-08-18T00:45:02.918Z,6.40
2022-08-18T00:47:33.209Z,6.05
2022-08-18T00:50:16.813Z,5.72
2022-08-18T00:52:51.458Z,5.80
2022-08-18T00:55:22.745Z,6.75
2022-08-18T00:57:55.578Z,6.45
2022-08-18T01:00:25.162Z,6.35
2022-08-18T01:02:57.573Z,6.10
2022-08-18T01:05:34.297Z,6.25
2022-08-18T01:08:03.778Z,7.10
2022-08-18T01:10:34.811Z,6.53
2022-08-18T01:13:05.047Z,6.40
2022-08-18T01:15:33.997Z,6.53
2022-08-18T01:18:23.383Z,6.93
2022-08-18T01:21:15.028Z,6.63
2022-08-18T01:23:47.404Z,6.30
2022-08-18T01:26:17.506Z,6.72
2022-08-18T01:28:47.429Z,7.50
2022-08-18T01:31:33.023Z,7.53
2022-08-18T01:34:02.524Z,7.63
2022-08-18T01:36:31.880Z,7.20
2022-08-18T01:39:02.294Z,7.07
2022-08-18T01:41:31.502Z,8.00
2022-08-18T01:44:00.986Z,7.80
2022-08-18T01:46:30.470Z,7.13
2022-08-18T01:49:01.298Z,7.10
2022-08-18T01:51:39.674Z,7.40
2022-08-18T01:54:14.733Z,6.78
2022-08-18T01:56:44.661Z,6.80
2022-08-18T01:59:14.625Z,7.38
2022-08-18T02:01:52.788Z,7.57
2022-08-18T02:04:35.623Z,7.60
2022-08-18T02:07:08.694Z,7.68
2022-08-18T02:09:40.438Z,7.07
2022-08-18T02:12:10.911Z,6.95
2022-08-18T02:14:40.293Z,7.28
2022-08-18T02:17:11.325Z,7.32
2022-08-18T02:19:43.578Z,7.10
2022-08-18T02:22:16.111Z,7.45
2022-08-18T02:24:46.683Z,7.75
2022-08-18T02:27:18.134Z,7.40
2022-08-18T02:29:47.271Z,7.47
2022-08-18T02:32:15.932Z,7.82
2022-08-18T02:34:44.960Z,8.55
2022-08-18T02:37:15.612Z,8.02
2022-08-18T02:39:46.231Z,6.63
2022-08-18T02:42:16.475Z,7.38
2022-08-18T02:44:45.518Z,7.10
2022-08-18T02:47:14.595Z,7.78
2022-08-18T02:49:43.615Z,7.93
2022-08-18T02:52:11.987Z,6.82
2022-08-18T02:54:40.901Z,8.10
2022-08-18T02:57:12.437Z,7.80
2022-08-18T02:59:42.762Z,7.72
2022-08-18T03:02:16.256Z,8.43
2022-08-18T03:04:44.609Z,7.70
2022-08-18T03:07:14.977Z,7.70
2022-08-18T03:09:43.368Z,8.18
2022-08-18T03:12:13.459Z,9.68
2022-08-18T03:14:42.399Z,8.68
2022-08-18T03:17:11.070Z,8.52
2022-08-18T03:19:39.969Z,7.63
2022-08-18T03:22:27.531Z,9.10
2022-08-18T03:24:59.316Z,8.30
2022-08-18T03:27:29.028Z,8.60
2022-08-18T03:29:58.787Z,7.80
2022-08-18T03:32:27.331Z,8.00
2022-08-18T03:34:56.488Z,7.22
2022-08-18T03:37:24.913Z,8.27
2022-08-18T03:39:53.677Z,8.25
2022-08-18T03:42:22.415Z,7.68
2022-08-18T03:44:53.310Z,8.68
2022-08-18T03:47:22.141Z,8.68
2022-08-18T03:49:50.617Z,9.00
2022-08-18T03:52:19.469Z,9.57
2022-08-18T03:54:48.873Z,8.02
2022-08-18T03:57:17.267Z,8.00
2022-08-18T03:59:46.676Z,8.48
2022-08-18T04:02:16.741Z,8.15
2022-08-18T04:04:45.117Z,8.82
2022-08-18T04:07:17.555Z,8.43
2022-08-18T04:09:47.488Z,7.80
2022-08-18T04:12:17.785Z,9.07
2022-08-18T04:14:49.625Z,9.00
2022-08-18T04:17:24.565Z,8.25
2022-08-18T04:19:54.271Z,8.25
2022-08-18T04:22:22.999Z,8.10
2022-08-18T04:24:52.594Z,8.02
2022-08-18T04:27:22.147Z,8.00
2022-08-18T04:29:51.046Z,7.10
2022-08-18T04:32:20.961Z,8.55
2022-08-18T04:34:50.584Z,9.05
2022-08-18T04:37:19.290Z,9.73
2022-08-18T04:39:48.905Z,8.88
2022-08-18T04:42:17.647Z,8.23
2022-08-18T04:44:46.786Z,8.73
2022-08-18T04:47:15.169Z,8.45
2022-08-18T04:49:44.963Z,9.10
2022-08-18T04:52:39.847Z,8.90
2022-08-18T04:55:11.645Z,8.30
2022-08-18T04:57:42.783Z,8.05
2022-08-18T05:00:13.074Z,8.55
2022-08-18T05:02:42.521Z,8.88
2022-08-18T05:05:12.420Z,8.10
2022-08-18T05:07:46.448Z,8.38
2022-08-18T05:10:17.586Z,8.10
2022-08-18T05:12:48.826Z,8.85
2022-08-18T05:15:19.131Z,7.93
2022-08-18T05:17:50.792Z,8.57
2022-08-18T05:20:22.386Z,8.15
2022-08-18T05:22:50.723Z,8.63
2022-08-18T05:25:19.638Z,8.77
2022-08-18T05:27:48.105Z,8.90
2022-08-18T05:30:17.272Z,10.02
2022-08-18T05:32:50.153Z,8.60
2022-08-18T05:35:24.308Z,8.70
2022-08-18T05:38:05.589Z,8.93
2022-08-18T05:40:36.222Z,10.52
2022-08-18T05:43:06.228Z,9.75
2022-08-18T05:45:36.597Z,9.00
2022-08-18T05:48:05.304Z,9.30
2022-08-18T05:50:38.369Z,9.65
2022-08-18T05:53:13.172Z,9.75
2022-08-18T05:56:05.377Z,9.30
2022-08-18T05:58:38.572Z,8.63
2022-08-18T06:01:14.201Z,8.90
2022-08-18T06:03:50.252Z,8.27
2022-08-18T06:06:25.525Z,8.48
2022-08-18T06:09:00.130Z,8.65
2022-08-18T06:11:28.484Z,8.57
2022-08-18T06:13:59.782Z,9.43
2022-08-18T06:16:44.524Z,9.45
2022-08-18T06:19:29.715Z,9.52
2022-08-18T06:22:09.411Z,9.13
2022-08-18T06:24:44.170Z,9.68
2022-08-18T06:27:23.165Z,9.15
2022-08-18T06:30:05.483Z,9.70
2022-08-18T06:32:53.628Z,9.52
2022-08-18T06:35:34.653Z,9.80
2022-08-18T06:38:45.443Z,9.65
2022-08-18T06:41:42.263Z,8.90
2022-08-18T06:44:08.299Z,9.65
2022-08-18T06:46:46.107Z,9.35
2022-08-18T06:49:32.973Z,8.70
2022-08-18T06:52:23.707Z,8.73
2022-08-18T06:54:55.195Z,8.68
2022-08-18T06:57:28.184Z,8.57
2022-08-18T07:00:00.043Z,8.52
2022-08-18T07:02:42.623Z,8.55
2022-08-18T07:05:23.828Z,7.60
2022-08-18T07:08:10.457Z,9.07
2022-08-18T07:10:42.290Z,8.35
2022-08-18T07:13:20.737Z,7.93
2022-08-18T07:15:49.928Z,7.90
2022-08-18T07:18:28.042Z,8.55
2022-08-18T07:20:59.896Z,8.27
2022-08-18T07:23:33.893Z,8.35
2022-08-18T07:26:11.934Z,10.15
2022-08-18T07:28:46.598Z,8.98
2022-08-18T07:31:25.576Z,9.73
2022-08-18T07:33:58.692Z,9.45
2022-08-18T07:36:31.967Z,8.20
2022-08-18T07:39:07.378Z,8.57
2022-08-18T07:41:43.963Z,9.95
2022-08-18T07:44:21.107Z,8.77
2022-08-18T07:47:00.189Z,9.82
2022-08-18T07:49:35.566Z,9.10
2022-08-18T07:52:36.518Z,10.00
2022-08-18T07:55:09.959Z,10.23
2022-08-18T07:57:46.128Z,10.60
2022-08-18T08:00:40.941Z,9.57
2022-08-18T08:03:26.971Z,10.68
2022-08-18T08:06:00.661Z,10.02
2022-08-18T08:08:35.235Z,10.50
2022-08-18T08:11:12.571Z,10.48
2022-08-18T08:13:57.370Z,11.68
2022-08-18T08:16:36.551Z,10.75
2022-08-18T08:19:15.522Z,9.48
2022-08-18T08:21:52.892Z,10.25
2022-08-18T08:24:30.392Z,10.10
2022-08-18T08:27:09.477Z,8.65
2022-08-18T08:29:45.748Z,10.40
2022-08-18T08:32:24.155Z,9.93
2022-08-18T08:34:57.730Z,8.68
2022-08-18T08:37:36.540Z,9.55
2022-08-18T08:40:13.410Z,10.70
2022-08-18T08:42:48.821Z,9.40
2022-08-18T08:45:23.704Z,9.05
2022-08-18T08:48:08.120Z,8.18
2022-08-18T08:50:42.264Z,8.73
2022-08-18T08:53:22.138Z,7.50
2022-08-18T08:55:57.670Z,8.00
2022-08-18T08:58:39.278Z,8.10
2022-08-18T09:01:17.345Z,7.57
2022-08-18T09:04:02.439Z,8.50
2022-08-18T09:06:43.598Z,7.50
2022-08-18T09:09:31.041Z,7.45
2022-08-18T09:12:26.568Z,9.20
2022-08-18T09:15:08.465Z,7.93
2022-08-18T09:17:55.616Z,8.80
2022-08-18T09:20:50.825Z,8.27
2022-08-18T09:23:24.279Z,7.60
2022-08-18T09:25:54.915Z,8.20
2022-08-18T09:28:40.849Z,8.25
2022-08-18T09:31:19.886Z,8.50
2022-08-18T09:34:12.951Z,8.80
2022-08-18T09:36:56.566Z,9.02
2022-08-18T09:39:54.456Z,8.85
2022-08-18T09:42:50.076Z,7.72
2022-08-18T09:45:57.785Z,8.00
2022-08-18T09:48:30.446Z,7.85
2022-08-18T09:51:23.824Z,8.23
2022-08-18T09:54:07.991Z,7.88
2022-08-18T09:57:16.590Z,9.15
2022-08-18T09:59:57.710Z,8.65
2022-08-18T10:03:11.830Z,7.60
2022-08-18T10:05:42.676Z,6.93
2022-08-18T10:08:37.707Z,7.13
2022-08-18T10:11:47.289Z,7.18
2022-08-18T10:14:36.500Z,7.60
2022-08-18T10:17:31.494Z,7.65
2022-08-18T10:20:26.238Z,7.20
2022-08-18T10:22:56.554Z,7.47
2022-08-18T10:25:41.095Z,7.35
2022-08-18T10:28:12.773Z,7.25
2022-08-18T10:30:56.597Z,7.10
2022-08-18T10:33:57.606Z,6.15
2022-08-18T10:36:50.862Z,6.88
2022-08-18T10:39:22.489Z,6.20
2022-08-18T10:42:06.381Z,6.10
2022-08-18T10:44:41.968Z,6.50
2022-08-18T10:50:21.863Z,5.53
2022-08-18T10:53:38.919Z,5.55
2022-08-18T10:56:02.354Z,6.03
2022-08-18T10:58:50.693Z,5.47
2022-08-18T11:01:32.821Z,5.70
2022-08-18T11:04:14.120Z,4.85
2022-08-18T11:06:48.718Z,5.57
2022-08-18T11:09:26.138Z,4.75
2022-08-18T11:11:59.836Z,4.15
2022-08-18T11:14:58.954Z,4.18
2022-08-18T11:17:42.690Z,4.53
2022-08-18T11:20:14.320Z,4.38
2022-08-18T11:22:52.279Z,5.05
2022-08-18T11:25:26.172Z,4.95
2022-08-18T11:27:58.226Z,5.13
2022-08-18T11:30:35.234Z,4.93
2022-08-18T11:33:05.486Z,4.53
2022-08-18T11:35:46.986Z,4.47
2022-08-18T11:38:23.352Z,4.75
2022-08-18T11:41:13.019Z,4.72
2022-08-18T11:43:47.352Z,4.32
2022-08-18T11:52:26.388Z,5.15
2022-08-18T11:57:59.128Z,4.70
2022-08-18T12:00:54.545Z,5.00
2022-08-18T12:03:31.835Z,4.32
2022-08-18T12:06:19.118Z,4.75
2022-08-18T12:11:53.451Z,4.47
2022-08-18T12:14:31.643Z,4.72
2022-08-18T12:17:05.530Z,5.00
2022-08-18T12:19:36.438Z,4.75
2022-08-18T12:22:18.789Z,4.70
2022-08-18T12:24:48.295Z,4.55
2022-08-18T12:27:21.714Z,5.15
2022-08-18T12:29:51.702Z,4.93
2022-08-18T12:32:50.357Z,5.10
2022-08-18T12:35:13.643Z,4.53
2022-08-18T12:38:04.896Z,4.55
2022-08-18T12:40:33.788Z,4.50
2022-08-18T12:43:02.615Z,5.28
2022-08-18T12:45:32.450Z,4.72
2022-08-18T12:48:04.286Z,4.57
2022-08-18T12:50:42.689Z,4.53
2022-08-18T12:53:29.862Z,4.72
2022-08-18T12:56:10.595Z,4.32
2022-08-18T12:58:40.599Z,4.88
2022-08-18T13:01:09.186Z,4.63
2022-08-18T13:03:42.492Z,4.35
2022-08-18T13:06:12.683Z,4.38
2022-08-18T13:08:47.887Z,4.90
2022-08-18T13:11:23.545Z,5.00
2022-08-18T13:13:55.190Z,5.10
2022-08-18T13:16:30.660Z,5.28
2022-08-18T13:19:10.623Z,4.68
2022-08-18T13:21:42.879Z,5.22
2022-08-18T13:24:12.754Z,4.43
2022-08-18T13:26:45.800Z,4.43
2022-08-18T13:29:15.508Z,5.00
2022-08-18T13:31:55.637Z,4.80
2022-08-18T13:34:29.940Z,4.80
2022-08-18T13:37:00.729Z,5.00
2022-08-18T13:39:34.079Z,4.50
2022-08-18T13:42:26.824Z,5.35
2022-08-18T13:44:53.633Z,4.47
2022-08-18T13:47:23.353Z,4.20
2022-08-18T13:49:58.153Z,4.55
2022-08-18T13:52:34.790Z,4.50
2022-08-18T13:55:08.118Z,4.78
2022-08-18T13:57:38.672Z,4.40
2022-08-18T14:00:17.932Z,3.90
2022-08-18T14:02:50.741Z,3.90
2022-08-18T14:05:20.774Z,4.50
2022-08-18T14:07:51.653Z,4.63
2022-08-18T14:10:22.007Z,3.80
2022-08-18T14:12:53.379Z,4.25
2022-08-18T14:15:23.358Z,4.18
2022-08-18T14:17:52.537Z,4.72
2022-08-18T14:20:40.344Z,4.20
2022-08-18T14:23:36.074Z,4.50
2022-08-18T14:26:23.860Z,4.47
2022-08-18T14:28:55.461Z,4.40
2022-08-18T14:31:24.665Z,4.55
2022-08-18T14:33:58.511Z,4.53
2022-08-18T14:36:33.330Z,4.45
2022-08-18T14:39:05.416Z,5.00
2022-08-18T14:41:37.052Z,4.88
2022-08-18T14:44:18.277Z,4.50
2022-08-18T14:46:54.323Z,4.78
2022-08-18T14:49:28.687Z,4.63
2022-08-18T14:51:59.464Z,4.80
2022-08-18T14:54:30.647Z,4.07
2022-08-18T14:57:01.682Z,4.35
2022-08-18T14:59:34.519Z,4.50
2022-08-18T15:02:07.677Z,4.85
2022-08-18T15:04:53.093Z,4.57
2022-08-18T15:07:26.602Z,4.07
2022-08-18T15:10:14.941Z,4.57
2022-08-18T15:12:45.830Z,4.40
2022-08-18T15:15:18.084Z,4.10
2022-08-18T15:17:50.234Z,4.60
2022-08-18T15:20:28.806Z,4.43
2022-08-18T15:23:22.854Z,4.63
2022-08-18T15:25:56.370Z,4.95
2022-08-18T15:28:27.904Z,4.47
2022-08-18T15:33:51.216Z,4.28
2022-08-18T15:36:24.040Z,4.97
2022-08-18T15:38:58.206Z,4.95
2022-08-18T15:41:34.724Z,4.63
2022-08-18T15:44:05.011Z,4.30
2022-08-18T15:46:35.062Z,4.30
2022-08-18T15:49:06.008Z,4.70
2022-08-18T15:51:40.995Z,4.65
2022-08-18T15:54:11.551Z,5.07
2022-08-18T15:56:43.424Z,4.80
2022-08-18T15:59:12.648Z,4.75
2022-08-18T16:01:43.445Z,4.72
2022-08-18T16:04:15.533Z,4.68
2022-08-18T16:06:47.690Z,4.60
2022-08-18T16:09:17.731Z,5.05
2022-08-18T16:11:48.463Z,4.72
2022-08-18T16:14:16.947Z,4.78
2022-08-18T16:16:46.175Z,4.78
2022-08-18T16:19:14.698Z,4.65
2022-08-18T16:21:43.966Z,4.65
2022-08-18T16:24:14.530Z,4.78
2022-08-18T16:26:45.396Z,4.85
2022-08-18T16:29:15.123Z,5.18
2022-08-18T16:31:43.978Z,4.80
2022-08-18T16:34:12.512Z,4.72
2022-08-18T16:36:41.982Z,4.63
2022-08-18T16:39:10.410Z,5.10
2022-08-18T16:41:38.815Z,5.57
2022-08-18T16:44:07.246Z,4.78
2022-08-18T16:46:37.861Z,4.80
2022-08-18T16:49:08.069Z,5.00
2022-08-18T16:51:38.649Z,4.32
2022-08-18T16:54:07.474Z,4.75
2022-08-18T16:56:36.601Z,4.85
2022-08-18T16:59:37.224Z,4.82
2022-08-18T17:02:32.779Z,4.80
2022-08-18T17:05:02.910Z,4.53
2022-08-18T17:07:32.444Z,4.72
2022-08-18T17:10:01.791Z,5.07
2022-08-18T17:12:30.674Z,4.68
2022-08-18T17:14:59.050Z,4.80
2022-08-18T17:17:28.808Z,5.00
2022-08-18T17:19:57.151Z,5.30
2022-08-18T17:22:26.116Z,4.88
2022-08-18T17:25:01.955Z,5.25
2022-08-18T17:27:37.871Z,4.90
2022-08-18T17:30:12.795Z,5.07
2022-08-18T17:32:47.800Z,4.45
2022-08-18T17:35:26.326Z,4.93
2022-08-18T17:38:04.825Z,5.30
2022-08-18T17:40:39.556Z,5.03
2022-08-18T17:43:13.179Z,4.90
2022-08-18T17:45:43.547Z,5.50
2022-08-18T17:48:17.376Z,5.75
2022-08-18T17:51:11.411Z,5.82
2022-08-18T17:53:40.143Z,6.10
2022-08-18T17:56:16.377Z,5.80
2022-08-18T17:58:53.366Z,5.70
2022-08-18T18:01:21.816Z,5.20
2022-08-18T18:03:52.446Z,5.95
2022-08-18T18:06:37.802Z,5.60
2022-08-18T18:09:08.360Z,6.22
2022-08-18T18:11:39.132Z,6.47
2022-08-18T18:14:26.282Z,6.22
2022-08-18T18:17:02.094Z,6.05
2022-08-18T18:19:33.439Z,6.28
2022-08-18T18:22:08.076Z,7.00
2022-08-18T18:24:39.221Z,7.30
2022-08-18T18:27:27.054Z,7.07
2022-08-18T18:29:58.182Z,7.43
2022-08-18T18:32:29.315Z,6.13
2022-08-18T18:35:12.900Z,7.25
2022-08-18T18:37:47.169Z,8.20
2022-08-18T18:40:27.537Z,7.30
2022-08-18T18:42:56.764Z,7.82
2022-08-18T18:45:29.015Z,7.32
2022-08-18T18:48:06.837Z,6.63
2022-08-18T18:50:55.541Z,7.07
2022-08-18T18:53:31.059Z,6.88
2022-08-18T18:56:12.577Z,7.18
2022-08-18T18:58:55.103Z,7.22
2022-08-18T19:01:36.698Z,7.10
2022-08-18T19:04:11.250Z,7.88
2022-08-18T19:06:52.369Z,11.40
2022-08-18T19:09:25.768Z,17.02
2022-08-18T19:12:09.644Z,11.82
2022-08-18T19:14:43.564Z,8.27
2022-08-18T19:17:35.058Z,8.02
2022-08-18T19:20:09.560Z,7.88
2022-08-18T19:22:44.419Z,7.78
2022-08-18T19:25:20.559Z,7.72
2022-08-18T19:27:53.528Z,7.60
2022-08-18T19:30:23.070Z,8.55
2022-08-18T19:32:54.951Z,8.55
2022-08-18T19:35:35.269Z,10.18
2022-08-18T19:38:20.853Z,11.15
2022-08-18T19:40:53.947Z,11.20
2022-08-18T19:43:29.839Z,11.93
2022-08-18T19:46:05.695Z,11.68
2022-08-18T19:48:44.091Z,11.80
2022-08-18T19:51:22.391Z,10.95
2022-08-18T19:54:09.472Z,11.88
2022-08-18T19:56:52.054Z,10.63
2022-08-18T19:59:45.844Z,11.93
2022-08-18T20:02:27.428Z,10.60
2022-08-18T20:05:17.559Z,11.32
2022-08-18T20:08:05.808Z,10.77
2022-08-18T20:10:59.804Z,9.77
2022-08-18T20:13:35.628Z,9.88
2022-08-18T20:16:43.264Z,10.05
2022-08-18T20:19:47.127Z,9.27
2022-08-18T20:22:33.827Z,8.95
2022-08-18T20:25:11.177Z,8.73
2022-08-18T20:27:43.012Z,8.45
2022-08-18T20:30:34.231Z,8.10
2022-08-18T20:33:29.296Z,8.68
2022-08-18T20:36:10.466Z,8.45
2022-08-18T20:38:41.299Z,7.35
2022-08-18T20:41:33.895Z,7.72
2022-08-18T20:44:29.487Z,7.20
2022-08-18T20:47:13.856Z,8.13
2022-08-18T20:49:56.773Z,8.32
2022-08-18T20:52:38.609Z,8.63
2022-08-18T20:55:21.588Z,9.07
2022-08-18T20:57:55.362Z,9.27
2022-08-18T21:00:27.814Z,8.20
2022-08-18T21:02:58.943Z,9.13
2022-08-18T21:05:32.737Z,8.80
2022-08-18T21:08:05.329Z,10.95
2022-08-18T21:10:35.664Z,8.80
2022-08-18T21:13:06.678Z,10.40
2022-08-18T21:15:39.802Z,10.02
2022-08-18T21:18:22.320Z,9.93
2022-08-18T21:20:53.893Z,10.55
2022-08-18T21:23:25.688Z,10.13
2022-08-18T21:25:59.687Z,10.07
2022-08-18T21:28:34.950Z,10.23
2022-08-18T21:31:42.481Z,11.40
2022-08-18T21:33:59.788Z,10.90
2022-08-18T21:36:31.589Z,10.23
2022-08-18T21:39:06.136Z,11.38
2022-08-18T21:41:40.300Z,12.85
2022-08-18T21:44:15.053Z,11.45
2022-08-18T21:46:46.335Z,11.63
2022-08-18T21:49:25.605Z,11.35
2022-08-18T21:51:54.644Z,12.60
2022-08-18T21:54:26.417Z,10.68
2022-08-18T21:57:21.793Z,11.65
2022-08-18T22:00:25.184Z,10.68
2022-08-18T22:03:21.817Z,11.55
2022-08-18T22:06:00.754Z,12.52
2022-08-18T22:08:34.034Z,12.10
2022-08-18T22:12:00.953Z,11.85
2022-08-18T22:14:54.683Z,12.15
2022-08-18T22:17:30.478Z,12.70
2022-08-18T22:20:35.003Z,11.90
2022-08-18T22:23:28.513Z,11.63
2022-08-18T22:26:08.348Z,11.73
2022-08-18T22:28:46.386Z,11.98
2022-08-18T22:31:20.848Z,12.15
2022-08-18T22:33:50.691Z,11.23
2022-08-18T22:36:24.440Z,10.98
2022-08-18T22:38:53.399Z,12.13
2022-08-18T22:41:23.047Z,12.30
2022-08-18T22:43:55.066Z,11.77
2022-08-18T22:46:25.778Z,11.32
2022-08-18T22:48:54.353Z,12.02
2022-08-18T22:51:27.970Z,12.80
2022-08-18T22:53:56.807Z,13.00
2022-08-18T22:56:34.575Z,12.15
2022-08-18T22:59:14.119Z,13.00
2022-08-18T23:01:48.121Z,12.43
2022-08-18T23:04:18.752Z,11.85
2022-08-18T23:06:52.476Z,12.32
2022-08-18T23:09:23.127Z,12.32
2022-08-18T23:11:53.562Z,12.75
2022-08-18T23:14:22.336Z,12.95
2022-08-18T23:16:51.976Z,12.35
2022-08-18T23:19:22.398Z,12.82
2022-08-18T23:21:52.449Z,13.10
2022-08-18T23:24:22.320Z,12.40
2022-08-18T23:26:51.139Z,12.88
2022-08-18T23:29:22.783Z,13.15
2022-08-18T23:31:52.490Z,11.90
2022-08-18T23:34:24.275Z,12.10
2022-08-18T23:36:58.102Z,13.35
2022-08-18T23:39:27.673Z,13.32
2022-08-18T23:41:56.769Z,11.80
2022-08-18T23:44:27.851Z,12.70
2022-08-18T23:46:58.329Z,12.00
2022-08-18T23:49:28.678Z,14.40
2022-08-18T23:52:00.015Z,12.40
2022-08-18T23:54:33.107Z,12.75
2022-08-18T23:57:02.255Z,13.20
2022-08-18T23:59:30.909Z,14.13
